Time;durP1;ratioP1;P1;durP2;ratioP2;P2;SDS_P1;SDS_P2;PMS_P1;PMS_P2;Temp;Humidity;BMP_temperature;BMP_pressure;BME280_temperature;BME280_humidity;BME280_pressure;Samples;Min_cycle;Max_cycle;Signal;HPM_P1;HPM_P2
2022/09/01 00:02:07;;;;;;;1.30;1.07;;;15.20;99.90;;;;;;5034537;28;20435;-74
2022/09/01 00:04:37;;;;;;;1.47;1.17;;;15.20;99.90;;;;;;5034403;28;20909;-74
2022/09/01 00:07:04;;;;;;;1.30;1.00;;;15.10;99.90;;;;;;5034303;28;20443;-73
2022/09/01 00:09:29;;;;;;;1.13;1.03;;;15.10;99.90;;;;;;5034544;28;20407;-73
2022/09/01 00:11:55;;;;;;;1.00;0.90;;;15.20;99.90;;;;;;5034136;28;20569;-74
2022/09/01 00:14:25;;;;;;;1.30;1.00;;;15.20;99.90;;;;;;5034222;28;20204;-74
2022/09/01 00:16:50;;;;;;;0.97;0.80;;;15.20;99.90;;;;;;5034234;28;20578;-73
2022/09/01 00:19:16;;;;;;;1.70;1.60;;;15.10;99.90;;;;;;5034083;28;20431;-72
2022/09/01 00:21:43;;;;;;;0.90;0.90;;;15.20;99.90;;;;;;5034761;28;20188;-72
2022/09/01 00:24:11;;;;;;;1.10;1.00;;;15.20;99.90;;;;;;5035048;28;20169;-72
2022/09/01 00:26:37;;;;;;;4.03;1.00;;;15.20;99.90;;;;;;5034665;28;20410;-73
2022/09/01 00:29:04;;;;;;;1.27;1.00;;;15.10;99.90;;;;;;5033950;28;20398;-73
2022/09/01 00:31:29;;;;;;;1.07;0.80;;;15.10;99.90;;;;;;5033827;28;20271;-73
2022/09/01 00:33:55;;;;;;;1.60;1.30;;;15.20;99.90;;;;;;5033701;28;21012;-73
2022/09/01 00:36:21;;;;;;;1.00;0.90;;;15.20;99.90;;;;;;5033762;28;20172;-73
2022/09/01 00:38:48;;;;;;;1.23;0.83;;;15.10;99.90;;;;;;5032541;28;20254;-73
2022/09/01 00:41:15;;;;;;;0.93;0.83;;;15.10;99.90;;;;;;5057918;22;20434;-67
2022/09/01 00:43:40;;;;;;;1.10;1.00;;;15.00;99.90;;;;;;5052930;28;20426;-68
2022/09/01 00:46:09;;;;;;;1.63;1.20;;;15.00;99.90;;;;;;5053116;28;20456;-67
2022/09/01 00:48:36;;;;;;;1.87;0.97;;;15.00;99.90;;;;;;5053056;28;20169;-67
2022/09/01 00:51:02;;;;;;;1.73;1.20;;;15.00;99.90;;;;;;5053285;28;20505;-68
2022/09/01 00:53:29;;;;;;;0.90;0.80;;;14.90;99.90;;;;;;5053046;28;20508;-67
2022/09/01 00:55:54;;;;;;;1.23;1.10;;;14.90;99.90;;;;;;5052566;28;20398;-68
2022/09/01 00:58:20;;;;;;;1.00;0.90;;;14.90;99.90;;;;;;5053276;28;20410;-68
2022/09/01 01:00:48;;;;;;;1.10;1.00;;;14.90;99.90;;;;;;5053019;28;20300;-68
2022/09/01 01:03:14;;;;;;;1.23;0.90;;;14.80;99.90;;;;;;5053063;28;20203;-68
2022/09/01 01:05:45;;;;;;;1.00;0.90;;;14.80;99.90;;;;;;5052932;28;20410;-68
2022/09/01 01:08:11;;;;;;;1.73;1.00;;;14.80;99.90;;;;;;5051689;28;20414;-68
2022/09/01 01:10:40;;;;;;;1.20;1.00;;;14.80;99.90;;;;;;5053311;28;20416;-68
2022/09/01 01:13:12;;;;;;;3.90;1.20;;;14.80;99.90;;;;;;5053224;28;20449;-68
2022/09/01 01:15:42;;;;;;;3.03;1.13;;;14.70;99.90;;;;;;5052965;28;20406;-68
2022/09/01 01:18:17;;;;;;;1.10;1.00;;;14.70;99.90;;;;;;5052964;28;20399;-68
2022/09/01 01:23:40;;;;;;;1.00;0.90;;;14.70;99.90;;;;;;5052730;28;20413;-68
2022/09/01 01:26:09;;;;;;;1.37;1.00;;;14.60;99.90;;;;;;5052358;28;20778;-68
2022/09/01 01:28:38;;;;;;;1.63;1.10;;;14.60;99.90;;;;;;5052777;28;20433;-68
2022/09/01 01:31:11;;;;;;;1.43;1.00;;;14.60;99.90;;;;;;5052578;28;20427;-68
2022/09/01 01:33:43;;;;;;;1.00;0.90;;;14.60;99.90;;;;;;5052625;28;20480;-68
2022/09/01 01:36:35;;;;;;;1.10;0.87;;;14.50;99.90;;;;;;5052164;28;20402;-68
2022/09/01 01:39:06;;;;;;;1.43;1.10;;;14.50;99.90;;;;;;5040911;28;20924;-68
2022/09/01 01:41:34;;;;;;;0.90;0.90;;;14.40;99.90;;;;;;5052066;28;20509;-67
2022/09/01 01:44:04;;;;;;;1.57;1.10;;;14.40;99.90;;;;;;5052150;28;20955;-67
2022/09/01 01:46:32;;;;;;;2.70;0.80;;;14.40;99.90;;;;;;5051859;28;20539;-67
2022/09/01 01:49:01;;;;;;;1.47;1.20;;;14.40;99.90;;;;;;5052494;28;20795;-67
2022/09/01 01:51:29;;;;;;;3.10;1.30;;;14.30;99.90;;;;;;5052041;28;20434;-66
2022/09/01 01:53:55;;;;;;;1.00;0.90;;;14.30;99.90;;;;;;5051971;28;20790;-66
2022/09/01 01:56:25;;;;;;;1.30;0.83;;;14.30;99.90;;;;;;5051786;28;20424;-66
2022/09/01 01:58:55;;;;;;;1.43;0.87;;;14.30;99.90;;;;;;5051221;28;20417;-67
2022/09/01 02:01:27;;;;;;;2.33;1.30;;;14.20;99.90;;;;;;5052040;28;20430;-67
2022/09/01 02:03:57;;;;;;;2.17;1.13;;;14.20;99.90;;;;;;5051925;28;20412;-67
2022/09/01 02:06:24;;;;;;;1.97;0.97;;;14.20;99.90;;;;;;5051995;28;20500;-67
2022/09/01 02:08:56;;;;;;;1.00;0.90;;;14.10;99.90;;;;;;5052192;28;20412;-67
2022/09/01 02:11:24;;;;;;;1.03;0.80;;;14.10;99.90;;;;;;5051855;28;21134;-68
2022/09/01 02:13:55;;;;;;;1.17;1.03;;;14.00;99.90;;;;;;5052119;28;20452;-67
2022/09/01 02:16:21;;;;;;;1.07;0.90;;;14.00;99.90;;;;;;5051873;28;21125;-69
2022/09/01 02:18:48;;;;;;;1.43;0.90;;;14.00;99.90;;;;;;5052158;28;20911;-68
2022/09/01 02:21:18;;;;;;;1.10;1.00;;;14.00;99.90;;;;;;5052107;28;20479;-68
2022/09/01 02:23:59;;;;;;;1.10;1.00;;;13.90;99.90;;;;;;5051946;28;20484;-68
2022/09/01 02:26:34;;;;;;;0.93;0.83;;;13.90;99.90;;;;;;5052067;28;20409;-68
2022/09/01 02:29:04;;;;;;;1.70;1.60;;;13.90;99.90;;;;;;5051908;28;20452;-68
2022/09/01 02:31:34;;;;;;;1.27;1.10;;;13.90;99.90;;;;;;5051720;28;20432;-68
2022/09/01 02:34:00;;;;;;;1.07;0.97;;;13.80;99.90;;;;;;5051847;28;20449;-68
2022/09/01 02:36:26;;;;;;;2.30;1.20;;;13.80;99.90;;;;;;5051553;28;20433;-69
2022/09/01 02:38:53;;;;;;;2.40;1.73;;;13.80;99.90;;;;;;5052064;28;20404;-68
2022/09/01 02:41:20;;;;;;;1.87;1.17;;;13.80;99.90;;;;;;5051527;28;20517;-68
2022/09/01 02:43:46;;;;;;;1.90;1.30;;;13.70;99.90;;;;;;5051794;28;20911;-68
2022/09/01 02:46:13;;;;;;;1.20;1.10;;;13.70;99.90;;;;;;5051555;28;20406;-69
2022/09/01 02:48:41;;;;;;;1.57;1.47;;;13.70;99.90;;;;;;5051624;28;20175;-68
2022/09/01 02:51:13;;;;;;;1.20;1.00;;;13.60;99.90;;;;;;5051358;28;20471;-67
2022/09/01 02:53:41;;;;;;;3.10;1.10;;;13.60;99.90;;;;;;5051849;28;20863;-67
2022/09/01 02:56:10;;;;;;;2.50;1.23;;;13.50;99.90;;;;;;5051436;28;20416;-68
2022/09/01 02:58:44;;;;;;;1.73;1.13;;;13.50;99.90;;;;;;5051439;28;20826;-67
2022/09/01 03:01:31;;;;;;;1.27;1.10;;;13.40;99.90;;;;;;5051565;28;20413;-68
2022/09/01 03:04:04;;;;;;;1.10;1.00;;;13.40;99.90;;;;;;5051509;28;20405;-68
2022/09/01 03:06:32;;;;;;;1.17;1.07;;;13.30;99.90;;;;;;5051172;28;21010;-68
2022/09/01 03:08:58;;;;;;;4.40;1.13;;;13.30;99.90;;;;;;5051642;28;20441;-67
2022/09/01 03:11:25;;;;;;;2.23;1.20;;;13.20;99.90;;;;;;5052366;28;20809;-68
2022/09/01 03:13:52;;;;;;;1.57;1.30;;;13.10;99.90;;;;;;5054942;28;20441;-67
2022/09/01 03:16:18;;;;;;;2.03;1.13;;;13.10;99.90;;;;;;5055148;28;20401;-68
2022/09/01 03:18:44;;;;;;;2.20;1.73;;;13.00;99.90;;;;;;5055242;28;20489;-68
2022/09/01 03:21:14;;;;;;;3.47;1.40;;;13.00;99.90;;;;;;5054954;28;21177;-67
2022/09/01 03:23:40;;;;;;;3.63;2.37;;;12.90;99.90;;;;;;5055154;28;20183;-67
2022/09/01 03:26:06;;;;;;;1.60;1.50;;;12.90;99.90;;;;;;5054775;28;20411;-67
2022/09/01 03:28:32;;;;;;;1.53;1.23;;;12.90;99.90;;;;;;5054765;28;20922;-67
2022/09/01 03:30:58;;;;;;;1.60;1.50;;;12.80;99.90;;;;;;5055017;28;20175;-67
2022/09/01 03:33:26;;;;;;;3.27;1.37;;;12.80;99.90;;;;;;5054818;28;20543;-68
2022/09/01 03:35:53;;;;;;;1.50;1.30;;;12.80;99.90;;;;;;5054634;28;20444;-67
2022/09/01 03:38:23;;;;;;;1.50;1.40;;;12.80;99.90;;;;;;5054640;28;20420;-67
2022/09/01 03:40:51;;;;;;;3.53;1.50;;;12.80;99.90;;;;;;5054759;28;20791;-68
2022/09/01 03:43:18;;;;;;;1.50;1.40;;;12.70;99.90;;;;;;5054323;28;20447;-67
2022/09/01 03:45:45;;;;;;;1.67;1.57;;;12.70;99.90;;;;;;5054860;28;20434;-68
2022/09/01 03:48:11;;;;;;;1.33;1.23;;;12.70;99.90;;;;;;5054505;28;20412;-68
2022/09/01 03:50:39;;;;;;;1.93;1.40;;;12.70;99.90;;;;;;5054709;28;20423;-67
2022/09/01 03:53:06;;;;;;;1.90;1.70;;;12.70;99.90;;;;;;5054230;28;20441;-67
2022/09/01 03:55:34;;;;;;;2.20;1.67;;;12.60;99.90;;;;;;5054134;28;20401;-68
2022/09/01 03:58:05;;;;;;;2.80;2.00;;;12.60;99.90;;;;;;5054214;28;20428;-69
2022/09/01 04:00:34;;;;;;;1.47;1.37;;;12.60;99.90;;;;;;5054260;28;20402;-67
2022/09/01 04:03:02;;;;;;;1.50;1.40;;;12.50;99.90;;;;;;5054205;28;20939;-67
2022/09/01 04:05:32;;;;;;;2.30;1.77;;;12.50;99.90;;;;;;5054126;28;20414;-68
2022/09/01 04:08:03;;;;;;;2.27;2.03;;;12.50;99.90;;;;;;5054112;28;20403;-68
2022/09/01 04:10:48;;;;;;;1.60;1.50;;;12.50;99.90;;;;;;5054120;28;20409;-67
2022/09/01 04:13:15;;;;;;;1.37;1.27;;;12.40;99.90;;;;;;5054114;28;20453;-67
2022/09/01 04:15:40;;;;;;;2.00;1.80;;;12.40;99.90;;;;;;5053859;28;20488;-68
2022/09/01 04:18:09;;;;;;;1.60;1.40;;;12.40;99.90;;;;;;5053992;28;20485;-67
2022/09/01 04:20:48;;;;;;;3.17;1.53;;;12.40;99.90;;;;;;5053827;28;20194;-67
2022/09/01 04:23:20;;;;;;;2.03;1.80;;;12.30;99.90;;;;;;5053565;28;20432;-67
2022/09/01 04:25:49;;;;;;;1.50;1.40;;;12.30;99.90;;;;;;5053518;28;20906;-67
2022/09/01 04:28:21;;;;;;;1.87;1.53;;;12.30;99.90;;;;;;5053684;28;20748;-67
2022/09/01 04:30:49;;;;;;;1.87;1.77;;;12.30;99.90;;;;;;5053622;28;20437;-67
2022/09/01 04:33:16;;;;;;;4.03;2.23;;;12.30;99.90;;;;;;5053431;28;20449;-67
2022/09/01 04:35:42;;;;;;;1.73;1.63;;;12.20;99.90;;;;;;5053400;28;20899;-67
2022/09/01 04:38:07;;;;;;;2.87;1.80;;;12.20;99.90;;;;;;5053636;28;20401;-68
2022/09/01 04:40:40;;;;;;;3.30;1.93;;;12.20;99.90;;;;;;5053537;28;20656;-68
2022/09/01 04:43:06;;;;;;;2.33;1.83;;;12.20;99.90;;;;;;5053419;28;20253;-67
2022/09/01 04:45:35;;;;;;;1.63;1.53;;;12.20;99.90;;;;;;5053371;28;20405;-68
2022/09/01 04:48:04;;;;;;;1.93;1.83;;;12.20;99.90;;;;;;5053671;28;20413;-67
2022/09/01 04:50:31;;;;;;;3.00;1.70;;;12.20;99.90;;;;;;5053555;28;20402;-69
2022/09/01 04:53:00;;;;;;;2.07;1.87;;;12.20;99.90;;;;;;5053406;28;20457;-67
2022/09/01 04:55:28;;;;;;;2.53;2.20;;;12.20;99.90;;;;;;5053923;28;20409;-67
2022/09/01 04:57:56;;;;;;;2.27;1.77;;;12.20;99.90;;;;;;5053909;28;20791;-67
2022/09/01 05:00:23;;;;;;;1.73;1.63;;;12.20;99.90;;;;;;5053202;28;20406;-67
2022/09/01 05:03:03;;;;;;;2.43;1.90;;;12.20;99.90;;;;;;5053304;28;20793;-68
2022/09/01 05:05:38;;;;;;;5.70;1.80;;;12.20;99.90;;;;;;5053123;28;20398;-68
2022/09/01 05:08:05;;;;;;;2.13;1.67;;;12.20;99.90;;;;;;5053379;28;20946;-68
2022/09/01 05:10:33;;;;;;;2.00;1.77;;;12.20;99.90;;;;;;5052896;28;20402;-68
2022/09/01 05:13:00;;;;;;;2.33;2.17;;;12.30;99.90;;;;;;5053054;28;20981;-68
2022/09/01 05:15:25;;;;;;;1.73;1.60;;;12.30;99.90;;;;;;5053046;28;20421;-68
2022/09/01 05:17:53;;;;;;;2.20;2.00;;;12.30;99.90;;;;;;5053344;28;20409;-69
2022/09/01 05:20:20;;;;;;;2.90;2.10;;;12.30;99.90;;;;;;5053195;28;20171;-69
2022/09/01 05:22:45;;;;;;;3.03;1.83;;;12.40;99.90;;;;;;5052627;28;20461;-67
2022/09/01 05:25:14;;;;;;;2.97;1.80;;;12.40;99.90;;;;;;5049515;28;20459;-68
2022/09/01 05:27:43;;;;;;;4.80;1.83;;;12.50;99.90;;;;;;5051537;28;20552;-68
2022/09/01 05:30:09;;;;;;;3.50;1.87;;;12.50;99.90;;;;;;5051682;28;20479;-68
2022/09/01 05:32:38;;;;;;;1.77;1.50;;;12.60;99.90;;;;;;5051664;28;20808;-68
2022/09/01 05:35:07;;;;;;;3.20;2.20;;;12.70;99.90;;;;;;5028245;28;20453;-68
2022/09/01 05:37:33;;;;;;;3.20;2.53;;;12.80;99.90;;;;;;5052398;28;20398;-67
2022/09/01 05:40:01;;;;;;;1.70;1.60;;;12.80;99.90;;;;;;5034237;28;20472;-67
2022/09/01 05:42:27;;;;;;;1.80;1.70;;;12.90;99.90;;;;;;5052135;28;20453;-67
2022/09/01 05:44:53;;;;;;;2.17;1.83;;;13.10;99.90;;;;;;5051892;28;20409;-67
2022/09/01 05:47:20;;;;;;;1.70;1.60;;;13.80;99.90;;;;;;5050661;28;20410;-67
2022/09/01 05:49:46;;;;;;;1.40;1.30;;;14.40;99.90;;;;;;5048290;28;20660;-66
2022/09/01 05:52:11;;;;;;;2.17;1.47;;;14.90;99.90;;;;;;5032128;28;20468;-68
2022/09/01 05:54:37;;;;;;;1.43;1.30;;;15.60;99.90;;;;;;5031876;28;20628;-67
2022/09/01 05:57:03;;;;;;;1.90;1.37;;;15.70;99.90;;;;;;5037336;28;20652;-67
2022/09/01 05:59:32;;;;;;;1.20;1.10;;;16.20;99.90;;;;;;5052612;28;20642;-68
2022/09/01 06:01:58;;;;;;;2.70;1.23;;;16.80;99.90;;;;;;5052066;28;20844;-68
2022/09/01 06:04:24;;;;;;;1.83;1.20;;;17.00;99.90;;;;;;5052211;28;20461;-68
2022/09/01 06:06:52;;;;;;;4.30;1.50;;;17.60;99.90;;;;;;5052088;28;20403;-67
2022/09/01 06:09:18;;;;;;;2.27;1.27;;;17.70;99.90;;;;;;5052251;28;20416;-67
2022/09/01 06:11:45;;;;;;;2.00;1.13;;;18.00;99.90;;;;;;5052238;28;20776;-68
2022/09/01 06:14:16;;;;;;;1.60;1.33;;;18.20;99.90;;;;;;5052140;28;20897;-68
2022/09/01 06:16:42;;;;;;;2.40;1.10;;;19.10;99.90;;;;;;5052226;28;20722;-68
2022/09/01 06:19:09;;;;;;;4.10;1.43;;;19.20;99.90;;;;;;5052473;28;20393;-67
2022/09/01 06:21:37;;;;;;;0.90;0.90;;;19.00;99.90;;;;;;5052076;28;20417;-68
2022/09/01 06:24:06;;;;;;;1.40;1.00;;;18.90;99.90;;;;;;5052031;28;20406;-68
2022/09/01 06:26:34;;;;;;;2.87;1.30;;;18.80;99.90;;;;;;5052094;28;20405;-67
2022/09/01 06:29:04;;;;;;;7.83;1.47;;;18.70;99.90;;;;;;5052122;28;20413;-67
2022/09/01 06:31:32;;;;;;;1.40;1.30;;;18.80;99.90;;;;;;5051962;28;20490;-67
2022/09/01 06:34:01;;;;;;;1.67;0.80;;;20.30;99.90;;;;;;5051466;28;20506;-67
2022/09/01 06:36:27;;;;;;;1.83;1.03;;;20.70;99.90;;;;;;5051381;28;20534;-67
2022/09/01 06:38:54;;;;;;;0.80;0.77;;;20.10;99.90;;;;;;5051181;28;20405;-68
2022/09/01 06:41:22;;;;;;;1.97;1.00;;;20.80;99.90;;;;;;5051105;28;20436;-68
2022/09/01 06:43:49;;;;;;;1.57;0.80;;;20.90;99.90;;;;;;5047339;22;20996;-74
2022/09/01 06:46:16;;;;;;;2.07;1.10;;;20.90;99.90;;;;;;5014187;28;20434;-73
2022/09/01 06:48:45;;;;;;;3.13;0.93;;;21.40;99.90;;;;;;5016446;28;20409;-73
2022/09/01 06:51:16;;;;;;;2.00;1.00;;;21.00;99.90;;;;;;5015939;28;20413;-73
2022/09/01 06:53:49;;;;;;;2.53;0.93;;;21.40;99.90;;;;;;5015672;28;20490;-73
2022/09/01 06:56:17;;;;;;;1.30;0.93;;;21.70;99.90;;;;;;5015768;28;20429;-74
2022/09/01 06:58:47;;;;;;;1.07;0.90;;;20.90;99.90;;;;;;5015927;28;20406;-74
2022/09/01 07:01:14;;;;;;;1.00;0.80;;;20.40;99.90;;;;;;5015897;28;20441;-74
2022/09/01 07:03:46;;;;;;;1.30;0.90;;;22.00;99.90;;;;;;5016127;28;20883;-74
2022/09/01 07:06:13;;;;;;;2.30;1.17;;;22.60;99.90;;;;;;5016366;28;20407;-75
2022/09/01 07:08:40;;;;;;;1.47;0.90;;;22.70;99.90;;;;;;5015952;28;20411;-74
2022/09/01 07:11:08;;;;;;;0.97;0.80;;;22.70;99.90;;;;;;5015985;28;20414;-74
2022/09/01 07:13:35;;;;;;;1.20;1.10;;;22.80;99.90;;;;;;5015966;28;20980;-74
2022/09/01 07:16:05;;;;;;;1.47;0.83;;;22.70;99.90;;;;;;5018835;28;20468;-74
2022/09/01 07:18:31;;;;;;;1.17;0.80;;;22.20;99.90;;;;;;5018050;28;20407;-73
2022/09/01 07:20:56;;;;;;;1.37;0.73;;;23.00;99.90;;;;;;5015784;28;20413;-73
2022/09/01 07:23:23;;;;;;;1.43;1.23;;;23.40;99.90;;;;;;5015814;28;20556;-74
2022/09/01 07:25:54;;;;;;;1.30;0.80;;;23.30;99.90;;;;;;5015623;28;20202;-75
2022/09/01 07:28:22;;;;;;;2.07;1.87;;;22.50;99.90;;;;;;5016211;28;20438;-75
2022/09/01 07:30:51;;;;;;;2.13;0.80;;;23.10;99.90;;;;;;5015308;28;20842;-74
2022/09/01 07:33:19;;;;;;;0.90;0.70;;;23.80;99.90;;;;;;5015221;28;20450;-75
2022/09/01 07:35:46;;;;;;;1.43;0.93;;;23.60;99.90;;;;;;5014977;28;20439;-75
2022/09/01 07:38:12;;;;;;;1.73;0.70;;;23.80;99.90;;;;;;5015298;28;20908;-73
2022/09/01 07:40:39;;;;;;;1.13;0.83;;;23.00;99.90;;;;;;5014932;28;20411;-74
2022/09/01 07:43:15;;;;;;;0.90;0.67;;;22.90;99.90;;;;;;5014912;28;20474;-75
2022/09/01 07:45:46;;;;;;;1.27;0.70;;;23.70;99.90;;;;;;5014848;28;20407;-74
2022/09/01 07:48:13;;;;;;;1.33;0.87;;;24.50;99.90;;;;;;5015593;28;20411;-74
2022/09/01 07:50:46;;;;;;;0.80;0.70;;;24.10;99.90;;;;;;5015068;28;20836;-74
2022/09/01 07:53:17;;;;;;;1.27;0.83;;;22.70;99.90;;;;;;5014639;28;20512;-74
2022/09/01 07:55:49;;;;;;;1.27;0.80;;;23.80;99.90;;;;;;5014662;28;20506;-75
2022/09/01 07:58:15;;;;;;;3.47;1.60;;;23.50;99.90;;;;;;5014251;28;20446;-74
2022/09/01 08:00:45;;;;;;;1.00;0.80;;;22.70;99.90;;;;;;4997267;28;20407;-74
2022/09/01 08:03:11;;;;;;;0.70;0.70;;;22.90;99.90;;;;;;5014934;28;20327;-73
2022/09/01 08:05:36;;;;;;;1.17;0.80;;;23.90;99.90;;;;;;5014452;28;20419;-74
2022/09/01 08:08:02;;;;;;;1.10;1.00;;;24.00;99.90;;;;;;5014814;28;20478;-74
2022/09/01 08:10:28;;;;;;;1.23;0.80;;;23.70;99.90;;;;;;5014462;28;20704;-74
2022/09/01 08:12:53;;;;;;;1.70;1.00;;;23.80;99.70;;;;;;5014317;28;20681;-75
2022/09/01 08:15:19;;;;;;;0.80;0.70;;;23.60;99.90;;;;;;5014470;28;20172;-75
2022/09/01 08:17:44;;;;;;;1.83;0.90;;;23.50;99.90;;;;;;5014580;28;20650;-75
2022/09/01 08:20:11;;;;;;;0.70;0.70;;;23.60;99.80;;;;;;5015459;28;20168;-74
2022/09/01 08:22:37;;;;;;;0.70;0.70;;;23.30;99.90;;;;;;5015151;28;20172;-74
2022/09/01 08:25:06;;;;;;;1.50;0.80;;;23.30;99.40;;;;;;4997328;28;20933;-74
2022/09/01 08:27:35;;;;;;;1.73;0.80;;;23.00;99.90;;;;;;5013591;28;20406;-74
2022/09/01 08:30:03;;;;;;;1.00;0.70;;;23.30;99.90;;;;;;5014202;28;20407;-75
2022/09/01 08:32:29;;;;;;;1.30;0.97;;;23.70;99.20;;;;;;5013967;28;20482;-74
2022/09/01 08:34:55;;;;;;;2.00;0.83;;;23.40;99.90;;;;;;5013730;28;20427;-74
2022/09/01 08:37:22;;;;;;;1.57;1.03;;;23.20;99.90;;;;;;5014213;28;20418;-75
2022/09/01 08:39:48;;;;;;;1.70;0.90;;;23.10;99.80;;;;;;5014251;28;20444;-75
2022/09/01 08:42:13;;;;;;;1.13;0.63;;;23.20;99.00;;;;;;5014144;28;20905;-76
2022/09/01 08:44:58;;;;;;;2.10;1.03;;;22.80;99.90;;;;;;5014006;28;20438;-75
2022/09/01 08:47:23;;;;;;;1.33;1.03;;;23.00;99.60;;;;;;5012971;28;20200;-75
2022/09/01 08:49:50;;;;;;;0.83;0.80;;;23.40;99.20;;;;;;5014285;28;20427;-75
2022/09/01 08:52:32;;;;;;;1.93;1.10;;;23.40;98.90;;;;;;5014110;28;20168;-75
2022/09/01 08:55:16;;;;;;;0.90;0.70;;;23.30;96.90;;;;;;5014326;28;20768;-75
2022/09/01 08:57:44;;;;;;;3.27;0.80;;;22.90;97.70;;;;;;5014618;28;20783;-76
2022/09/01 09:00:14;;;;;;;1.03;0.83;;;23.40;97.70;;;;;;5016077;28;20411;-75
2022/09/01 09:03:17;;;;;;;0.80;0.70;;;23.50;97.30;;;;;;5015000;28;20404;-74
2022/09/01 09:05:54;;;;;;;1.10;0.80;;;23.00;98.40;;;;;;4994185;28;20400;-75
2022/09/01 09:08:41;;;;;;;2.17;0.80;;;23.10;98.70;;;;;;4994176;28;20396;-73
2022/09/01 09:11:41;;;;;;;0.63;0.63;;;23.50;98.30;;;;;;4994274;28;20410;-76
2022/09/01 09:14:13;;;;;;;3.97;0.90;;;23.70;97.50;;;;;;5013407;28;20454;-74
2022/09/01 09:16:41;;;;;;;1.10;1.00;;;22.80;97.80;;;;;;5013285;28;20465;-74
2022/09/01 09:19:21;;;;;;;1.93;0.80;;;23.20;97.50;;;;;;5013332;28;20431;-75
2022/09/01 09:21:49;;;;;;;1.27;0.80;;;22.70;97.50;;;;;;5013253;28;20415;-74
2022/09/01 09:24:20;;;;;;;1.20;0.90;;;23.00;97.20;;;;;;5013364;28;20806;-75
2022/09/01 09:26:50;;;;;;;1.00;0.77;;;22.60;97.30;;;;;;5012618;28;20924;-74
2022/09/01 09:29:17;;;;;;;1.03;0.70;;;23.30;97.70;;;;;;5012924;28;20411;-76
2022/09/01 09:31:47;;;;;;;1.10;0.80;;;23.40;96.80;;;;;;5013133;28;20415;-75
2022/09/01 09:34:29;;;;;;;2.00;1.90;;;22.90;96.90;;;;;;5012962;28;20465;-73
2022/09/01 09:36:54;;;;;;;0.90;0.77;;;22.90;96.60;;;;;;5012864;28;20421;-74
2022/09/01 09:39:20;;;;;;;1.10;0.80;;;22.80;96.40;;;;;;5012920;28;20410;-74
2022/09/01 09:42:07;;;;;;;1.63;0.90;;;22.20;96.30;;;;;;5012966;28;20161;-74
2022/09/01 09:44:38;;;;;;;0.93;0.70;;;21.80;97.20;;;;;;5012538;28;20504;-74
2022/09/01 09:47:03;;;;;;;1.73;0.90;;;21.80;97.60;;;;;;5012586;28;20475;-75
2022/09/01 09:49:31;;;;;;;0.90;0.80;;;21.30;98.50;;;;;;5012681;28;20506;-75
2022/09/01 09:52:17;;;;;;;0.90;0.80;;;21.30;98.30;;;;;;5012712;28;20164;-75
2022/09/01 09:55:28;;;;;;;1.70;0.70;;;20.90;98.30;;;;;;5012083;28;20454;-75
2022/09/01 09:57:59;;;;;;;0.80;0.70;;;21.10;98.00;;;;;;4987977;28;20422;-74
2022/09/01 10:00:32;;;;;;;1.27;0.70;;;21.20;97.20;;;;;;5012719;28;20407;-75
2022/09/01 10:03:01;;;;;;;0.73;0.73;;;21.30;96.30;;;;;;4975696;28;20508;-75
2022/09/01 10:05:38;;;;;;;0.80;0.70;;;21.10;96.60;;;;;;4996591;28;20415;-74
2022/09/01 10:08:10;;;;;;;1.13;0.80;;;21.20;95.80;;;;;;5020340;28;20415;-74
2022/09/01 10:10:45;;;;;;;0.70;0.70;;;21.30;95.90;;;;;;5019118;28;20435;-74
2022/09/01 10:13:14;;;;;;;1.07;0.90;;;21.30;96.10;;;;;;5012275;28;20449;-75
2022/09/01 10:15:46;;;;;;;4.97;1.00;;;21.50;95.90;;;;;;5012263;28;20455;-75
2022/09/01 10:18:16;;;;;;;1.40;0.80;;;21.40;95.50;;;;;;4994718;28;20900;-74
2022/09/01 10:21:34;;;;;;;1.00;0.80;;;21.00;94.90;;;;;;5011842;28;20495;-74
2022/09/01 10:24:09;;;;;;;0.80;0.70;;;20.80;95.90;;;;;;4999298;28;20814;-75
2022/09/01 10:26:37;;;;;;;0.93;0.70;;;21.10;95.90;;;;;;5012271;28;20435;-75
2022/09/01 10:29:18;;;;;;;3.10;1.10;;;20.80;96.20;;;;;;5012539;28;20772;-75
2022/09/01 10:31:44;;;;;;;0.83;0.70;;;20.50;97.30;;;;;;5012786;28;20439;-74
2022/09/01 10:34:16;;;;;;;1.00;0.90;;;20.50;95.90;;;;;;5012287;28;20497;-75
2022/09/01 10:36:43;;;;;;;0.80;0.77;;;20.80;96.30;;;;;;5011348;28;20233;-75
2022/09/01 10:39:14;;;;;;;0.70;0.70;;;20.70;95.60;;;;;;5011439;28;20404;-74
2022/09/01 10:41:55;;;;;;;1.00;0.67;;;20.40;95.90;;;;;;5012147;28;20914;-75
2022/09/01 10:44:30;;;;;;;0.97;0.80;;;20.60;95.40;;;;;;5011940;28;20457;-74
2022/09/01 10:46:58;;;;;;;0.70;0.70;;;21.00;94.80;;;;;;5011695;28;20499;-75
2022/09/01 10:49:46;;;;;;;1.43;0.80;;;21.20;94.60;;;;;;5011927;28;20416;-75
2022/09/01 10:52:41;;;;;;;0.80;0.80;;;21.00;95.30;;;;;;4983976;28;20970;-74
2022/09/01 10:55:22;;;;;;;0.80;0.70;;;20.70;95.10;;;;;;5011523;28;20409;-74
2022/09/01 10:58:13;;;;;;;0.70;0.70;;;20.60;95.80;;;;;;5011941;28;20886;-74
2022/09/01 11:00:38;;;;;;;1.00;0.80;;;20.50;95.60;;;;;;5011279;28;20415;-74
2022/09/01 11:03:10;;;;;;;1.33;0.70;;;20.50;95.70;;;;;;5011587;28;20420;-75
2022/09/01 11:05:57;;;;;;;0.70;0.67;;;20.70;95.20;;;;;;5011816;28;20207;-74
2022/09/01 11:08:26;;;;;;;0.90;0.80;;;20.40;95.60;;;;;;5011802;28;20409;-74
2022/09/01 11:11:04;;;;;;;0.90;0.70;;;20.40;95.70;;;;;;5011691;28;20404;-75
2022/09/01 11:13:49;;;;;;;0.70;0.60;;;20.20;95.00;;;;;;4993992;28;20464;-75
2022/09/01 11:16:34;;;;;;;3.43;1.07;;;20.40;95.40;;;;;;4993736;28;20416;-74
2022/09/01 11:19:29;;;;;;;1.30;0.67;;;20.70;95.60;;;;;;5011684;28;20593;-74
2022/09/01 11:22:12;;;;;;;0.70;0.67;;;20.80;94.10;;;;;;5011766;28;20417;-75
2022/09/01 11:24:41;;;;;;;3.00;0.80;;;20.70;93.40;;;;;;5011300;28;20974;-75
2022/09/01 11:27:08;;;;;;;1.47;0.80;;;20.50;94.20;;;;;;5003702;28;20808;-74
2022/09/01 11:29:58;;;;;;;0.70;0.70;;;20.50;94.10;;;;;;5011145;28;20424;-74
2022/09/01 11:32:33;;;;;;;1.60;0.90;;;20.50;93.80;;;;;;4994116;28;20431;-73
2022/09/01 11:35:03;;;;;;;1.20;1.10;;;20.50;93.30;;;;;;5014927;28;20783;-74
2022/09/01 11:37:29;;;;;;;1.03;0.70;;;20.70;93.20;;;;;;4997352;28;20400;-75
2022/09/01 11:39:58;;;;;;;0.73;0.73;;;21.20;91.60;;;;;;5014886;28;20547;-75
2022/09/01 11:42:36;;;;;;;0.90;0.70;;;21.60;91.50;;;;;;5013298;28;20852;-74
2022/09/01 11:45:16;;;;;;;0.80;0.80;;;21.80;90.70;;;;;;5000419;28;20424;-73
2022/09/01 11:47:48;;;;;;;1.20;0.80;;;21.90;90.60;;;;;;5014793;28;20493;-74
2022/09/01 11:50:21;;;;;;;0.60;0.60;;;21.60;90.10;;;;;;5014711;28;20397;-74
2022/09/01 11:53:07;;;;;;;1.93;1.00;;;21.30;90.80;;;;;;5014647;28;20458;-75
2022/09/01 11:55:47;;;;;;;1.10;0.90;;;21.30;91.00;;;;;;5020056;28;20402;-74
2022/09/01 11:58:37;;;;;;;0.90;0.70;;;21.20;91.20;;;;;;5016056;28;20756;-75
2022/09/01 12:01:29;;;;;;;0.90;0.70;;;21.30;91.40;;;;;;5014677;28;20435;-74
2022/09/01 12:03:54;;;;;;;1.10;0.70;;;21.20;91.40;;;;;;5014996;28;20922;-76
2022/09/01 12:06:25;;;;;;;0.70;0.60;;;21.00;90.90;;;;;;5015650;28;20504;-75
2022/09/01 12:08:57;;;;;;;4.80;0.80;;;21.00;91.20;;;;;;5016333;28;20167;-75
2022/09/01 12:11:31;;;;;;;1.27;0.60;;;21.10;91.90;;;;;;5015150;28;20783;-75
2022/09/01 12:14:06;;;;;;;1.23;0.70;;;21.10;93.70;;;;;;5014216;28;20831;-74
2022/09/01 12:16:35;;;;;;;0.80;0.60;;;20.80;94.80;;;;;;5014019;28;20577;-75
2022/09/01 12:19:02;;;;;;;1.00;0.70;;;20.60;95.60;;;;;;5014623;28;20407;-74
2022/09/01 12:21:37;;;;;;;1.50;0.73;;;20.70;95.90;;;;;;5014232;28;20410;-74
2022/09/01 12:24:18;;;;;;;1.97;0.87;;;20.60;96.10;;;;;;5014059;28;20469;-74
2022/09/01 12:26:47;;;;;;;1.87;0.80;;;20.60;95.90;;;;;;5014235;28;20442;-74
2022/09/01 12:29:13;;;;;;;1.00;0.70;;;20.70;95.70;;;;;;5014240;28;20419;-75
2022/09/01 12:31:44;;;;;;;1.30;0.70;;;20.60;95.70;;;;;;5014177;28;20412;-76
2022/09/01 12:34:38;;;;;;;0.90;0.70;;;20.40;96.20;;;;;;5014140;28;20458;-75
2022/09/01 12:37:14;;;;;;;1.27;0.90;;;20.40;96.20;;;;;;4996658;28;20426;-75
2022/09/01 12:39:43;;;;;;;1.90;0.77;;;20.40;96.40;;;;;;5014261;28;20475;-75
2022/09/01 12:42:18;;;;;;;1.20;0.70;;;20.40;96.90;;;;;;5013863;28;20401;-74
2022/09/01 12:45:06;;;;;;;1.40;0.67;;;20.60;96.20;;;;;;5035638;22;20483;-67
2022/09/01 12:47:34;;;;;;;0.73;0.60;;;20.50;95.60;;;;;;5013225;28;20405;-68
2022/09/01 12:50:21;;;;;;;1.60;0.90;;;20.40;95.60;;;;;;5013584;28;20752;-67
2022/09/01 12:52:49;;;;;;;0.83;0.70;;;20.40;96.00;;;;;;4998986;28;20410;-67
2022/09/01 12:55:35;;;;;;;1.07;0.93;;;20.40;96.60;;;;;;5012693;28;20979;-67
2022/09/01 12:58:05;;;;;;;0.93;0.80;;;20.40;96.20;;;;;;5012052;28;20411;-67
2022/09/01 13:00:55;;;;;;;1.00;0.73;;;20.70;95.50;;;;;;5012615;28;20414;-67
2022/09/01 13:03:22;;;;;;;0.80;0.80;;;20.90;94.70;;;;;;5012247;28;20425;-67
2022/09/01 13:05:53;;;;;;;0.73;0.60;;;21.00;93.40;;;;;;4999490;28;20414;-67
2022/09/01 13:08:21;;;;;;;1.53;0.70;;;21.30;93.90;;;;;;5013024;28;20457;-67
2022/09/01 13:10:50;;;;;;;0.83;0.77;;;21.50;93.20;;;;;;5013336;28;20421;-67